sensor_id;sensor_type;location;lat;lon;timestamp;P1;durP1;ratioP1;P2;durP2;ratioP2
51292;SDS011;37377;45.186;9.778;2023-07-29T00:02:43;11.05;;;6.55;;
51292;SDS011;37377;45.186;9.778;2023-07-29T00:05:33;12.00;;;7.35;;
51292;SDS011;37377;45.186;9.778;2023-07-29T00:08:06;12.48;;;7.32;;
51292;SDS011;37377;45.186;9.778;2023-07-29T00:10:36;8.60;;;7.33;;
51292;SDS011;37377;45.186;9.778;2023-07-29T00:13:24;15.88;;;7.90;;
51292;SDS011;37377;45.186;9.778;2023-07-29T00:15:55;17.77;;;8.13;;
51292;SDS011;37377;45.186;9.778;2023-07-29T00:20:20;10.82;;;7.35;;
51292;SDS011;37377;45.186;9.778;2023-07-29T00:23:12;16.00;;;8.82;;
51292;SDS011;37377;45.186;9.778;2023-07-29T00:25:42;14.10;;;8.40;;
51292;SDS011;37377;45.186;9.778;2023-07-29T00:28:21;13.25;;;9.10;;
51292;SDS011;37377;45.186;9.778;2023-07-29T00:30:49;16.00;;;8.55;;
51292;SDS011;37377;45.186;9.778;2023-07-29T00:33:26;11.52;;;8.27;;
51292;SDS011;37377;45.186;9.778;2023-07-29T00:35:58;13.60;;;8.52;;
51292;SDS011;37377;45.186;9.778;2023-07-29T00:38:42;9.45;;;8.32;;
51292;SDS011;37377;45.186;9.778;2023-07-29T00:42:08;11.23;;;8.82;;
51292;SDS011;37377;45.186;9.778;2023-07-29T00:45:31;11.35;;;10.05;;
51292;SDS011;37377;45.186;9.778;2023-07-29T00:49:10;12.75;;;8.15;;
51292;SDS011;37377;45.186;9.778;2023-07-29T00:51:44;9.18;;;7.85;;
51292;SDS011;37377;45.186;9.778;2023-07-29T00:54:39;9.98;;;8.73;;
51292;SDS011;37377;45.186;9.778;2023-07-29T00:57:21;11.30;;;8.98;;
51292;SDS011;37377;45.186;9.778;2023-07-29T00:59:53;11.63;;;9.05;;
51292;SDS011;37377;45.186;9.778;2023-07-29T01:02:24;15.02;;;9.15;;
51292;SDS011;37377;45.186;9.778;2023-07-29T01:04:59;19.23;;;9.70;;
51292;SDS011;37377;45.186;9.778;2023-07-29T01:07:33;13.68;;;9.65;;
51292;SDS011;37377;45.186;9.778;2023-07-29T01:10:30;15.43;;;10.43;;
51292;SDS011;37377;45.186;9.778;2023-07-29T01:16:47;18.98;;;10.10;;
51292;SDS011;37377;45.186;9.778;2023-07-29T01:20:11;13.70;;;10.68;;
51292;SDS011;37377;45.186;9.778;2023-07-29T01:22:52;14.82;;;11.30;;
51292;SDS011;37377;45.186;9.778;2023-07-29T01:25:36;16.13;;;12.60;;
51292;SDS011;37377;45.186;9.778;2023-07-29T01:28:06;18.55;;;12.20;;
51292;SDS011;37377;45.186;9.778;2023-07-29T01:36:28;22.20;;;13.27;;
51292;SDS011;37377;45.186;9.778;2023-07-29T01:45:58;17.48;;;14.20;;
51292;SDS011;37377;45.186;9.778;2023-07-29T01:50:10;19.35;;;13.95;;
51292;SDS011;37377;45.186;9.778;2023-07-29T01:52:38;18.33;;;14.18;;
51292;SDS011;37377;45.186;9.778;2023-07-29T01:55:06;17.42;;;13.85;;
51292;SDS011;37377;45.186;9.778;2023-07-29T01:57:56;20.25;;;13.50;;
51292;SDS011;37377;45.186;9.778;2023-07-29T02:00:54;18.45;;;14.52;;
51292;SDS011;37377;45.186;9.778;2023-07-29T02:05:24;19.27;;;12.57;;
51292;SDS011;37377;45.186;9.778;2023-07-29T02:08:31;19.25;;;13.38;;
51292;SDS011;37377;45.186;9.778;2023-07-29T02:11:23;17.77;;;12.60;;
51292;SDS011;37377;45.186;9.778;2023-07-29T02:14:19;12.45;;;11.18;;
51292;SDS011;37377;45.186;9.778;2023-07-29T02:16:46;19.20;;;10.70;;
51292;SDS011;37377;45.186;9.778;2023-07-29T02:19:13;14.07;;;10.60;;
51292;SDS011;37377;45.186;9.778;2023-07-29T02:21:41;17.30;;;10.50;;
51292;SDS011;37377;45.186;9.778;2023-07-29T02:24:08;17.10;;;10.80;;
51292;SDS011;37377;45.186;9.778;2023-07-29T02:26:35;12.45;;;11.18;;
51292;SDS011;37377;45.186;9.778;2023-07-29T02:29:02;16.27;;;11.55;;
51292;SDS011;37377;45.186;9.778;2023-07-29T02:31:29;15.93;;;11.88;;
51292;SDS011;37377;45.186;9.778;2023-07-29T02:33:56;12.70;;;11.38;;
51292;SDS011;37377;45.186;9.778;2023-07-29T02:36:46;14.48;;;12.00;;
51292;SDS011;37377;45.186;9.778;2023-07-29T02:39:13;22.50;;;12.43;;
51292;SDS011;37377;45.186;9.778;2023-07-29T02:41:45;13.40;;;12.05;;
51292;SDS011;37377;45.186;9.778;2023-07-29T02:44:17;16.75;;;12.88;;
51292;SDS011;37377;45.186;9.778;2023-07-29T02:46:46;17.77;;;13.02;;
51292;SDS011;37377;45.186;9.778;2023-07-29T02:50:24;14.18;;;12.70;;
51292;SDS011;37377;45.186;9.778;2023-07-29T02:52:53;18.80;;;13.55;;
51292;SDS011;37377;45.186;9.778;2023-07-29T02:55:20;22.33;;;12.77;;
51292;SDS011;37377;45.186;9.778;2023-07-29T02:57:49;16.10;;;12.88;;
51292;SDS011;37377;45.186;9.778;2023-07-29T03:00:23;21.95;;;13.15;;
51292;SDS011;37377;45.186;9.778;2023-07-29T03:02:51;20.17;;;12.48;;
51292;SDS011;37377;45.186;9.778;2023-07-29T03:05:21;14.65;;;13.05;;
51292;SDS011;37377;45.186;9.778;2023-07-29T03:07:48;20.67;;;14.05;;
51292;SDS011;37377;45.186;9.778;2023-07-29T03:10:15;36.05;;;31.20;;
51292;SDS011;37377;45.186;9.778;2023-07-29T03:12:55;23.85;;;15.20;;
51292;SDS011;37377;45.186;9.778;2023-07-29T03:16:07;20.23;;;15.00;;
51292;SDS011;37377;45.186;9.778;2023-07-29T03:18:54;16.45;;;14.52;;
51292;SDS011;37377;45.186;9.778;2023-07-29T03:21:24;22.05;;;15.52;;
51292;SDS011;37377;45.186;9.778;2023-07-29T03:24:21;20.48;;;15.43;;
51292;SDS011;37377;45.186;9.778;2023-07-29T03:26:48;18.52;;;15.15;;
51292;SDS011;37377;45.186;9.778;2023-07-29T03:29:15;24.38;;;15.90;;
51292;SDS011;37377;45.186;9.778;2023-07-29T03:32:07;21.85;;;16.52;;
51292;SDS011;37377;45.186;9.778;2023-07-29T03:34:34;25.15;;;16.25;;
51292;SDS011;37377;45.186;9.778;2023-07-29T03:37:01;24.08;;;17.00;;
51292;SDS011;37377;45.186;9.778;2023-07-29T03:39:28;20.65;;;16.40;;
51292;SDS011;37377;45.186;9.778;2023-07-29T03:42:18;19.02;;;16.30;;
51292;SDS011;37377;45.186;9.778;2023-07-29T03:44:45;18.45;;;16.50;;
51292;SDS011;37377;45.186;9.778;2023-07-29T03:47:39;27.55;;;16.83;;
51292;SDS011;37377;45.186;9.778;2023-07-29T03:50:07;19.15;;;16.48;;
51292;SDS011;37377;45.186;9.778;2023-07-29T03:53:04;23.60;;;16.88;;
51292;SDS011;37377;45.186;9.778;2023-07-29T03:56:01;20.33;;;17.23;;
51292;SDS011;37377;45.186;9.778;2023-07-29T03:58:28;26.95;;;17.08;;
51292;SDS011;37377;45.186;9.778;2023-07-29T04:00:58;19.50;;;17.05;;
51292;SDS011;37377;45.186;9.778;2023-07-29T04:03:49;20.25;;;17.10;;
51292;SDS011;37377;45.186;9.778;2023-07-29T04:06:34;25.40;;;16.20;;
51292;SDS011;37377;45.186;9.778;2023-07-29T04:09:45;23.35;;;14.95;;
51292;SDS011;37377;45.186;9.778;2023-07-29T04:12:12;21.63;;;16.25;;
51292;SDS011;37377;45.186;9.778;2023-07-29T04:14:39;29.38;;;16.00;;
51292;SDS011;37377;45.186;9.778;2023-07-29T04:17:07;27.17;;;17.42;;
51292;SDS011;37377;45.186;9.778;2023-07-29T04:19:35;29.10;;;17.20;;
51292;SDS011;37377;45.186;9.778;2023-07-29T04:22:10;28.45;;;16.75;;
51292;SDS011;37377;45.186;9.778;2023-07-29T04:24:37;26.42;;;17.13;;
51292;SDS011;37377;45.186;9.778;2023-07-29T04:27:04;26.08;;;17.75;;
51292;SDS011;37377;45.186;9.778;2023-07-29T04:29:31;22.02;;;16.70;;
51292;SDS011;37377;45.186;9.778;2023-07-29T04:31:58;29.60;;;17.20;;
51292;SDS011;37377;45.186;9.778;2023-07-29T04:34:25;27.35;;;17.08;;
51292;SDS011;37377;45.186;9.778;2023-07-29T04:36:52;25.55;;;19.33;;
51292;SDS011;37377;45.186;9.778;2023-07-29T04:39:19;24.67;;;19.23;;
51292;SDS011;37377;45.186;9.778;2023-07-29T04:41:46;27.05;;;18.52;;
51292;SDS011;37377;45.186;9.778;2023-07-29T04:44:14;28.13;;;18.70;;
51292;SDS011;37377;45.186;9.778;2023-07-29T04:46:40;23.50;;;17.95;;
51292;SDS011;37377;45.186;9.778;2023-07-29T04:49:07;22.52;;;16.50;;
51292;SDS011;37377;45.186;9.778;2023-07-29T04:51:34;26.08;;;16.63;;
51292;SDS011;37377;45.186;9.778;2023-07-29T04:54:01;21.48;;;14.90;;
51292;SDS011;37377;45.186;9.778;2023-07-29T04:56:28;18.27;;;15.60;;
51292;SDS011;37377;45.186;9.778;2023-07-29T04:58:55;20.48;;;15.73;;
51292;SDS011;37377;45.186;9.778;2023-07-29T05:01:21;18.52;;;14.02;;
51292;SDS011;37377;45.186;9.778;2023-07-29T05:03:48;21.10;;;14.60;;
51292;SDS011;37377;45.186;9.778;2023-07-29T05:06:15;17.88;;;13.43;;
51292;SDS011;37377;45.186;9.778;2023-07-29T05:08:42;16.77;;;14.27;;
51292;SDS011;37377;45.186;9.778;2023-07-29T05:11:09;18.88;;;15.05;;
51292;SDS011;37377;45.186;9.778;2023-07-29T05:13:36;25.05;;;15.55;;
51292;SDS011;37377;45.186;9.778;2023-07-29T05:16:03;20.85;;;16.50;;
51292;SDS011;37377;45.186;9.778;2023-07-29T05:18:32;21.85;;;16.63;;
51292;SDS011;37377;45.186;9.778;2023-07-29T05:20:59;19.70;;;17.27;;
51292;SDS011;37377;45.186;9.778;2023-07-29T05:23:26;22.80;;;16.70;;
51292;SDS011;37377;45.186;9.778;2023-07-29T05:25:53;19.38;;;14.40;;
51292;SDS011;37377;45.186;9.778;2023-07-29T05:28:19;26.05;;;15.82;;
51292;SDS011;37377;45.186;9.778;2023-07-29T05:30:46;21.50;;;16.80;;
51292;SDS011;37377;45.186;9.778;2023-07-29T05:33:13;23.48;;;17.13;;
51292;SDS011;37377;45.186;9.778;2023-07-29T05:35:40;22.40;;;16.35;;
51292;SDS011;37377;45.186;9.778;2023-07-29T05:38:07;27.50;;;16.00;;
51292;SDS011;37377;45.186;9.778;2023-07-29T05:40:34;19.83;;;14.85;;
51292;SDS011;37377;45.186;9.778;2023-07-29T05:43:01;18.55;;;12.90;;
51292;SDS011;37377;45.186;9.778;2023-07-29T05:45:29;16.50;;;12.63;;
51292;SDS011;37377;45.186;9.778;2023-07-29T05:47:57;17.40;;;11.55;;
51292;SDS011;37377;45.186;9.778;2023-07-29T05:50:24;20.60;;;10.45;;
51292;SDS011;37377;45.186;9.778;2023-07-29T05:52:51;13.20;;;9.13;;
51292;SDS011;37377;45.186;9.778;2023-07-29T05:55:18;13.98;;;7.97;;
51292;SDS011;37377;45.186;9.778;2023-07-29T05:57:45;12.10;;;7.30;;
51292;SDS011;37377;45.186;9.778;2023-07-29T06:00:12;9.57;;;8.23;;
51292;SDS011;37377;45.186;9.778;2023-07-29T06:02:39;22.27;;;10.93;;
51292;SDS011;37377;45.186;9.778;2023-07-29T06:05:12;17.65;;;9.60;;
51292;SDS011;37377;45.186;9.778;2023-07-29T06:07:38;23.63;;;10.30;;
51292;SDS011;37377;45.186;9.778;2023-07-29T06:10:12;23.00;;;10.33;;
51292;SDS011;37377;45.186;9.778;2023-07-29T06:12:39;15.27;;;10.77;;
51292;SDS011;37377;45.186;9.778;2023-07-29T06:15:07;22.05;;;10.32;;
51292;SDS011;37377;45.186;9.778;2023-07-29T06:17:34;21.83;;;10.13;;
51292;SDS011;37377;45.186;9.778;2023-07-29T06:20:01;25.10;;;12.30;;
51292;SDS011;37377;45.186;9.778;2023-07-29T06:22:29;26.25;;;10.38;;
51292;SDS011;37377;45.186;9.778;2023-07-29T06:24:55;16.88;;;8.50;;
51292;SDS011;37377;45.186;9.778;2023-07-29T06:27:23;14.45;;;7.40;;
51292;SDS011;37377;45.186;9.778;2023-07-29T06:29:51;21.33;;;8.57;;
51292;SDS011;37377;45.186;9.778;2023-07-29T06:32:18;15.05;;;7.70;;
51292;SDS011;37377;45.186;9.778;2023-07-29T06:34:45;15.18;;;8.40;;
51292;SDS011;37377;45.186;9.778;2023-07-29T06:37:11;12.48;;;7.57;;
51292;SDS011;37377;45.186;9.778;2023-07-29T06:39:38;22.08;;;8.77;;
51292;SDS011;37377;45.186;9.778;2023-07-29T06:42:05;17.40;;;8.30;;
51292;SDS011;37377;45.186;9.778;2023-07-29T06:44:32;17.55;;;8.52;;
51292;SDS011;37377;45.186;9.778;2023-07-29T06:46:59;12.90;;;8.10;;
51292;SDS011;37377;45.186;9.778;2023-07-29T06:49:26;20.65;;;7.57;;
51292;SDS011;37377;45.186;9.778;2023-07-29T06:51:53;16.33;;;6.97;;
51292;SDS011;37377;45.186;9.778;2023-07-29T06:54:30;18.20;;;8.45;;
51292;SDS011;37377;45.186;9.778;2023-07-29T06:57:00;18.10;;;7.90;;
51292;SDS011;37377;45.186;9.778;2023-07-29T06:59:33;12.45;;;7.93;;
51292;SDS011;37377;45.186;9.778;2023-07-29T07:02:04;9.95;;;8.18;;
51292;SDS011;37377;45.186;9.778;2023-07-29T07:04:39;19.42;;;8.70;;
51292;SDS011;37377;45.186;9.778;2023-07-29T07:07:10;16.88;;;9.52;;
51292;SDS011;37377;45.186;9.778;2023-07-29T07:09:40;18.63;;;9.57;;
51292;SDS011;37377;45.186;9.778;2023-07-29T07:12:16;17.08;;;9.50;;
51292;SDS011;37377;45.186;9.778;2023-07-29T07:14:43;15.82;;;8.63;;
51292;SDS011;37377;45.186;9.778;2023-07-29T07:17:18;13.57;;;8.38;;
51292;SDS011;37377;45.186;9.778;2023-07-29T07:19:48;20.90;;;10.27;;
51292;SDS011;37377;45.186;9.778;2023-07-29T07:22:21;19.20;;;8.18;;
51292;SDS011;37377;45.186;9.778;2023-07-29T07:24:54;8.73;;;7.28;;
51292;SDS011;37377;45.186;9.778;2023-07-29T07:27:31;12.27;;;7.47;;
51292;SDS011;37377;45.186;9.778;2023-07-29T07:30:03;10.32;;;6.68;;
51292;SDS011;37377;45.186;9.778;2023-07-29T07:32:34;11.43;;;6.75;;
51292;SDS011;37377;45.186;9.778;2023-07-29T07:35:12;13.85;;;6.65;;
51292;SDS011;37377;45.186;9.778;2023-07-29T07:37:41;12.15;;;6.10;;
51292;SDS011;37377;45.186;9.778;2023-07-29T07:40:10;12.10;;;6.68;;
51292;SDS011;37377;45.186;9.778;2023-07-29T07:42:40;11.48;;;6.45;;
51292;SDS011;37377;45.186;9.778;2023-07-29T07:47:44;16.90;;;6.40;;
51292;SDS011;37377;45.186;9.778;2023-07-29T07:50:11;14.82;;;6.63;;
51292;SDS011;37377;45.186;9.778;2023-07-29T07:55:16;16.17;;;6.47;;
51292;SDS011;37377;45.186;9.778;2023-07-29T07:57:54;6.93;;;5.70;;
51292;SDS011;37377;45.186;9.778;2023-07-29T08:00:29;16.23;;;6.18;;
51292;SDS011;37377;45.186;9.778;2023-07-29T08:03:04;10.98;;;4.40;;
51292;SDS011;37377;45.186;9.778;2023-07-29T08:05:39;10.88;;;3.70;;
51292;SDS011;37377;45.186;9.778;2023-07-29T08:08:12;13.95;;;3.67;;
51292;SDS011;37377;45.186;9.778;2023-07-29T08:10:52;9.77;;;3.30;;
51292;SDS011;37377;45.186;9.778;2023-07-29T08:13:20;10.02;;;2.58;;
51292;SDS011;37377;45.186;9.778;2023-07-29T08:15:57;6.90;;;2.90;;
51292;SDS011;37377;45.186;9.778;2023-07-29T08:18:35;7.35;;;2.50;;
51292;SDS011;37377;45.186;9.778;2023-07-29T08:21:11;6.95;;;2.70;;
51292;SDS011;37377;45.186;9.778;2023-07-29T08:23:42;9.93;;;3.30;;
51292;SDS011;37377;45.186;9.778;2023-07-29T08:26:12;5.68;;;2.30;;
51292;SDS011;37377;45.186;9.778;2023-07-29T08:28:45;5.57;;;2.38;;
51292;SDS011;37377;45.186;9.778;2023-07-29T08:31:23;10.85;;;2.63;;
51292;SDS011;37377;45.186;9.778;2023-07-29T08:33:54;12.55;;;2.83;;
51292;SDS011;37377;45.186;9.778;2023-07-29T08:36:28;6.93;;;2.80;;
51292;SDS011;37377;45.186;9.778;2023-07-29T08:39:01;7.00;;;2.67;;
51292;SDS011;37377;45.186;9.778;2023-07-29T08:41:36;8.10;;;3.10;;
51292;SDS011;37377;45.186;9.778;2023-07-29T08:44:23;15.20;;;3.38;;
51292;SDS011;37377;45.186;9.778;2023-07-29T08:46:58;9.73;;;3.10;;
51292;SDS011;37377;45.186;9.778;2023-07-29T08:49:30;7.65;;;3.35;;
51292;SDS011;37377;45.186;9.778;2023-07-29T08:52:01;11.52;;;3.38;;
51292;SDS011;37377;45.186;9.778;2023-07-29T08:54:30;9.48;;;3.50;;
51292;SDS011;37377;45.186;9.778;2023-07-29T08:57:09;7.75;;;3.35;;
51292;SDS011;37377;45.186;9.778;2023-07-29T08:59:38;10.50;;;3.30;;
51292;SDS011;37377;45.186;9.778;2023-07-29T09:02:06;8.88;;;3.42;;
51292;SDS011;37377;45.186;9.778;2023-07-29T09:04:42;7.40;;;3.45;;
51292;SDS011;37377;45.186;9.778;2023-07-29T09:07:18;6.30;;;3.17;;
51292;SDS011;37377;45.186;9.778;2023-07-29T09:09:50;5.68;;;2.88;;
51292;SDS011;37377;45.186;9.778;2023-07-29T09:12:26;5.05;;;3.00;;
51292;SDS011;37377;45.186;9.778;2023-07-29T09:15:02;6.45;;;2.42;;
51292;SDS011;37377;45.186;9.778;2023-07-29T09:17:40;8.90;;;2.55;;
51292;SDS011;37377;45.186;9.778;2023-07-29T09:20:13;5.03;;;2.65;;
51292;SDS011;37377;45.186;9.778;2023-07-29T09:22:44;5.43;;;2.60;;
51292;SDS011;37377;45.186;9.778;2023-07-29T09:25:21;5.43;;;2.75;;
51292;SDS011;37377;45.186;9.778;2023-07-29T09:28:00;5.15;;;2.53;;
51292;SDS011;37377;45.186;9.778;2023-07-29T09:30:39;7.97;;;3.13;;
51292;SDS011;37377;45.186;9.778;2023-07-29T09:33:18;6.53;;;3.50;;
51292;SDS011;37377;45.186;9.778;2023-07-29T09:35:53;6.35;;;2.67;;
51292;SDS011;37377;45.186;9.778;2023-07-29T09:38:29;8.35;;;3.08;;
51292;SDS011;37377;45.186;9.778;2023-07-29T09:41:05;8.63;;;2.65;;
51292;SDS011;37377;45.186;9.778;2023-07-29T09:43:40;10.88;;;3.03;;
51292;SDS011;37377;45.186;9.778;2023-07-29T09:46:15;12.65;;;3.20;;
51292;SDS011;37377;45.186;9.778;2023-07-29T09:48:45;10.45;;;2.80;;
51292;SDS011;37377;45.186;9.778;2023-07-29T09:51:19;6.95;;;2.97;;
51292;SDS011;37377;45.186;9.778;2023-07-29T09:53:52;8.70;;;3.13;;
51292;SDS011;37377;45.186;9.778;2023-07-29T09:56:26;6.53;;;3.42;;
51292;SDS011;37377;45.186;9.778;2023-07-29T09:58:59;8.75;;;3.25;;
51292;SDS011;37377;45.186;9.778;2023-07-29T10:01:34;10.23;;;3.75;;
51292;SDS011;37377;45.186;9.778;2023-07-29T10:04:03;11.18;;;3.90;;
51292;SDS011;37377;45.186;9.778;2023-07-29T10:06:37;10.10;;;3.60;;
51292;SDS011;37377;45.186;9.778;2023-07-29T10:09:05;9.32;;;3.55;;
51292;SDS011;37377;45.186;9.778;2023-07-29T10:11:33;15.82;;;3.58;;
51292;SDS011;37377;45.186;9.778;2023-07-29T10:14:01;14.27;;;3.70;;
51292;SDS011;37377;45.186;9.778;2023-07-29T10:16:37;8.85;;;3.50;;
51292;SDS011;37377;45.186;9.778;2023-07-29T10:19:09;14.00;;;3.83;;
51292;SDS011;37377;45.186;9.778;2023-07-29T10:21:38;8.70;;;3.25;;
51292;SDS011;37377;45.186;9.778;2023-07-29T10:24:06;10.48;;;3.03;;
51292;SDS011;37377;45.186;9.778;2023-07-29T10:26:36;11.48;;;3.33;;
51292;SDS011;37377;45.186;9.778;2023-07-29T10:29:10;9.73;;;3.33;;
51292;SDS011;37377;45.186;9.778;2023-07-29T10:31:39;8.75;;;3.50;;
51292;SDS011;37377;45.186;9.778;2023-07-29T10:34:08;6.10;;;2.97;;
51292;SDS011;37377;45.186;9.778;2023-07-29T10:36:35;16.92;;;4.40;;
51292;SDS011;37377;45.186;9.778;2023-07-29T10:39:07;13.85;;;3.80;;
51292;SDS011;37377;45.186;9.778;2023-07-29T10:47:13;22.30;;;3.65;;
51292;SDS011;37377;45.186;9.778;2023-07-29T10:49:46;8.82;;;3.33;;
51292;SDS011;37377;45.186;9.778;2023-07-29T10:52:15;8.60;;;3.38;;
51292;SDS011;37377;45.186;9.778;2023-07-29T10:54:44;10.65;;;3.65;;
51292;SDS011;37377;45.186;9.778;2023-07-29T10:57:14;17.65;;;3.50;;
51292;SDS011;37377;45.186;9.778;2023-07-29T11:00:03;14.07;;;3.55;;
51292;SDS011;37377;45.186;9.778;2023-07-29T11:02:35;9.70;;;3.47;;
51292;SDS011;37377;45.186;9.778;2023-07-29T11:05:17;9.48;;;3.65;;
51292;SDS011;37377;45.186;9.778;2023-07-29T11:07:45;13.75;;;4.05;;
51292;SDS011;37377;45.186;9.778;2023-07-29T11:10:15;7.95;;;4.40;;
51292;SDS011;37377;45.186;9.778;2023-07-29T11:15:21;10.70;;;3.25;;
51292;SDS011;37377;45.186;9.778;2023-07-29T11:18:01;6.85;;;3.50;;
51292;SDS011;37377;45.186;9.778;2023-07-29T11:20:31;8.25;;;3.80;;
51292;SDS011;37377;45.186;9.778;2023-07-29T11:23:00;7.45;;;3.20;;
51292;SDS011;37377;45.186;9.778;2023-07-29T11:25:32;9.02;;;3.08;;
51292;SDS011;37377;45.186;9.778;2023-07-29T11:28:02;8.93;;;3.38;;
51292;SDS011;37377;45.186;9.778;2023-07-29T11:30:33;10.35;;;3.40;;
51292;SDS011;37377;45.186;9.778;2023-07-29T11:33:03;11.30;;;3.88;;
51292;SDS011;37377;45.186;9.778;2023-07-29T11:35:31;9.07;;;3.40;;
51292;SDS011;37377;45.186;9.778;2023-07-29T11:37:58;9.60;;;3.53;;
51292;SDS011;37377;45.186;9.778;2023-07-29T11:40:28;21.63;;;4.05;;
51292;SDS011;37377;45.186;9.778;2023-07-29T11:42:58;11.00;;;3.58;;
51292;SDS011;37377;45.186;9.778;2023-07-29T11:45:25;10.02;;;3.67;;
51292;SDS011;37377;45.186;9.778;2023-07-29T11:48:07;18.38;;;3.95;;
51292;SDS011;37377;45.186;9.778;2023-07-29T11:50:34;7.18;;;3.30;;
51292;SDS011;37377;45.186;9.778;2023-07-29T11:53:01;14.77;;;4.18;;
51292;SDS011;37377;45.186;9.778;2023-07-29T11:55:28;7.78;;;3.30;;
51292;SDS011;37377;45.186;9.778;2023-07-29T11:57:55;12.80;;;2.97;;
51292;SDS011;37377;45.186;9.778;2023-07-29T12:00:22;9.95;;;5.53;;
51292;SDS011;37377;45.186;9.778;2023-07-29T12:02:49;11.55;;;3.25;;
51292;SDS011;37377;45.186;9.778;2023-07-29T12:05:17;7.88;;;3.40;;
51292;SDS011;37377;45.186;9.778;2023-07-29T12:07:44;9.07;;;4.13;;
51292;SDS011;37377;45.186;9.778;2023-07-29T12:10:11;12.90;;;3.47;;
51292;SDS011;37377;45.186;9.778;2023-07-29T12:12:48;8.02;;;3.65;;
51292;SDS011;37377;45.186;9.778;2023-07-29T12:15:28;6.70;;;3.40;;
51292;SDS011;37377;45.186;9.778;2023-07-29T12:17:56;6.57;;;3.78;;
51292;SDS011;37377;45.186;9.778;2023-07-29T12:20:28;9.32;;;7.18;;
51292;SDS011;37377;45.186;9.778;2023-07-29T12:22:56;6.72;;;3.67;;
51292;SDS011;37377;45.186;9.778;2023-07-29T12:25:25;7.00;;;3.53;;
51292;SDS011;37377;45.186;9.778;2023-07-29T12:27:52;11.75;;;3.50;;
51292;SDS011;37377;45.186;9.778;2023-07-29T12:30:20;8.15;;;3.45;;
51292;SDS011;37377;45.186;9.778;2023-07-29T12:32:48;6.78;;;3.38;;
51292;SDS011;37377;45.186;9.778;2023-07-29T12:35:15;7.47;;;2.65;;
51292;SDS011;37377;45.186;9.778;2023-07-29T12:37:42;17.20;;;3.78;;
51292;SDS011;37377;45.186;9.778;2023-07-29T12:40:22;14.20;;;3.20;;
51292;SDS011;37377;45.186;9.778;2023-07-29T12:42:50;13.85;;;3.25;;
51292;SDS011;37377;45.186;9.778;2023-07-29T12:45:20;12.00;;;3.10;;
51292;SDS011;37377;45.186;9.778;2023-07-29T12:47:50;7.13;;;2.70;;
51292;SDS011;37377;45.186;9.778;2023-07-29T12:50:17;8.02;;;3.03;;
51292;SDS011;37377;45.186;9.778;2023-07-29T12:52:44;10.57;;;3.40;;
51292;SDS011;37377;45.186;9.778;2023-07-29T12:55:11;7.78;;;2.70;;
51292;SDS011;37377;45.186;9.778;2023-07-29T12:57:43;12.30;;;3.20;;
51292;SDS011;37377;45.186;9.778;2023-07-29T13:00:10;11.80;;;3.03;;
51292;SDS011;37377;45.186;9.778;2023-07-29T13:02:42;6.35;;;3.25;;
51292;SDS011;37377;45.186;9.778;2023-07-29T13:05:09;9.32;;;2.78;;
51292;SDS011;37377;45.186;9.778;2023-07-29T13:07:40;8.25;;;3.40;;
51292;SDS011;37377;45.186;9.778;2023-07-29T13:10:07;13.68;;;3.22;;
51292;SDS011;37377;45.186;9.778;2023-07-29T13:12:41;8.52;;;3.53;;
51292;SDS011;37377;45.186;9.778;2023-07-29T13:15:08;9.43;;;3.30;;
51292;SDS011;37377;45.186;9.778;2023-07-29T13:17:35;9.88;;;3.33;;
51292;SDS011;37377;45.186;9.778;2023-07-29T13:20:04;12.48;;;4.07;;
51292;SDS011;37377;45.186;9.778;2023-07-29T13:22:31;12.38;;;3.40;;
51292;SDS011;37377;45.186;9.778;2023-07-29T13:24:58;10.45;;;3.70;;
51292;SDS011;37377;45.186;9.778;2023-07-29T13:27:25;10.02;;;3.75;;
51292;SDS011;37377;45.186;9.778;2023-07-29T13:30:03;9.70;;;4.45;;
51292;SDS011;37377;45.186;9.778;2023-07-29T13:33:11;13.45;;;4.07;;
51292;SDS011;37377;45.186;9.778;2023-07-29T13:35:38;9.55;;;3.50;;
51292;SDS011;37377;45.186;9.778;2023-07-29T13:38:05;9.77;;;3.38;;
51292;SDS011;37377;45.186;9.778;2023-07-29T13:40:32;7.43;;;3.20;;
51292;SDS011;37377;45.186;9.778;2023-07-29T13:43:00;7.05;;;4.07;;
51292;SDS011;37377;45.186;9.778;2023-07-29T13:45:27;7.95;;;3.72;;
51292;SDS011;37377;45.186;9.778;2023-07-29T13:47:53;6.82;;;3.00;;
51292;SDS011;37377;45.186;9.778;2023-07-29T13:50:20;10.15;;;3.35;;
51292;SDS011;37377;45.186;9.778;2023-07-29T13:52:47;9.52;;;4.53;;
51292;SDS011;37377;45.186;9.778;2023-07-29T13:55:44;12.05;;;3.67;;
51292;SDS011;37377;45.186;9.778;2023-07-29T13:58:11;6.47;;;2.65;;
51292;SDS011;37377;45.186;9.778;2023-07-29T14:00:41;9.85;;;3.15;;
51292;SDS011;37377;45.186;9.778;2023-07-29T14:03:11;6.80;;;3.45;;
51292;SDS011;37377;45.186;9.778;2023-07-29T14:05:50;10.40;;;2.78;;
51292;SDS011;37377;45.186;9.778;2023-07-29T14:08:17;9.95;;;4.20;;
51292;SDS011;37377;45.186;9.778;2023-07-29T14:10:44;7.65;;;3.92;;
51292;SDS011;37377;45.186;9.778;2023-07-29T14:13:11;12.15;;;3.67;;
51292;SDS011;37377;45.186;9.778;2023-07-29T14:15:38;14.55;;;3.50;;
51292;SDS011;37377;45.186;9.778;2023-07-29T14:18:05;11.65;;;5.03;;
51292;SDS011;37377;45.186;9.778;2023-07-29T14:20:35;10.02;;;3.58;;
51292;SDS011;37377;45.186;9.778;2023-07-29T14:23:02;6.65;;;3.10;;
51292;SDS011;37377;45.186;9.778;2023-07-29T14:25:31;8.85;;;2.97;;
51292;SDS011;37377;45.186;9.778;2023-07-29T14:27:58;4.50;;;2.88;;
51292;SDS011;37377;45.186;9.778;2023-07-29T14:30:55;17.17;;;3.90;;
51292;SDS011;37377;45.186;9.778;2023-07-29T14:33:22;6.50;;;2.85;;
51292;SDS011;37377;45.186;9.778;2023-07-29T14:35:48;5.85;;;3.08;;
51292;SDS011;37377;45.186;9.778;2023-07-29T14:38:15;11.63;;;5.80;;
51292;SDS011;37377;45.186;9.778;2023-07-29T14:40:42;10.02;;;5.13;;
51292;SDS011;37377;45.186;9.778;2023-07-29T14:43:13;17.98;;;11.45;;
51292;SDS011;37377;45.186;9.778;2023-07-29T14:45:40;11.23;;;3.97;;
51292;SDS011;37377;45.186;9.778;2023-07-29T14:48:28;9.93;;;2.90;;
51292;SDS011;37377;45.186;9.778;2023-07-29T14:51:04;9.98;;;4.10;;
51292;SDS011;37377;45.186;9.778;2023-07-29T14:53:38;4.93;;;2.47;;
51292;SDS011;37377;45.186;9.778;2023-07-29T14:56:06;11.75;;;3.55;;
51292;SDS011;37377;45.186;9.778;2023-07-29T14:58:33;14.90;;;3.38;;
51292;SDS011;37377;45.186;9.778;2023-07-29T15:01:00;7.53;;;3.63;;
51292;SDS011;37377;45.186;9.778;2023-07-29T15:03:28;13.20;;;5.38;;
51292;SDS011;37377;45.186;9.778;2023-07-29T15:05:55;11.00;;;3.33;;
51292;SDS011;37377;45.186;9.778;2023-07-29T15:08:27;7.72;;;3.95;;
51292;SDS011;37377;45.186;9.778;2023-07-29T15:10:56;6.13;;;3.00;;
51292;SDS011;37377;45.186;9.778;2023-07-29T15:13:22;11.50;;;3.33;;
51292;SDS011;37377;45.186;9.778;2023-07-29T15:15:49;10.75;;;4.97;;
51292;SDS011;37377;45.186;9.778;2023-07-29T15:18:17;11.05;;;3.22;;
51292;SDS011;37377;45.186;9.778;2023-07-29T15:20:44;18.25;;;3.20;;
51292;SDS011;37377;45.186;9.778;2023-07-29T15:23:16;5.43;;;2.83;;
51292;SDS011;37377;45.186;9.778;2023-07-29T15:25:43;6.47;;;3.78;;
51292;SDS011;37377;45.186;9.778;2023-07-29T15:28:09;6.63;;;3.08;;
51292;SDS011;37377;45.186;9.778;2023-07-29T15:30:36;6.25;;;3.15;;
51292;SDS011;37377;45.186;9.778;2023-07-29T15:33:03;9.05;;;2.85;;
51292;SDS011;37377;45.186;9.778;2023-07-29T15:35:30;6.88;;;3.22;;
51292;SDS011;37377;45.186;9.778;2023-07-29T15:38:03;7.32;;;3.25;;
51292;SDS011;37377;45.186;9.778;2023-07-29T15:40:30;10.32;;;3.60;;
51292;SDS011;37377;45.186;9.778;2023-07-29T15:42:57;10.95;;;4.28;;
51292;SDS011;37377;45.186;9.778;2023-07-29T15:45:24;7.30;;;3.10;;